• Join FlightAware (Why Join?)
  • Login
  • US Flag 
08:24PM EDT


 

Airport Tracker/Info


-or-


 

Live Flight TrackerFlight Track Log ✈ PDT4314 ✈ 30-Oct-2013 ✈ KBGM - KPHL

Flight Track Log - Related Links

Times and Time Zones

All times are in EDT time to prevent confusion due to time zone crossing. See the PDT4314 flight status page for this flight to view local times or setup timezone preferences in your user account.

Time Position Orientation Groundspeed Altitude Reporting Facility
EDT Latitude Longitude Course Direction KTS MPH feet Rate Location/Type
05:58PM 41.8345 -75.8577 161° South  Level Estimated
05:59PM 41.7720 -75.8383 167° South  Level FlightAware Approximate
06:00PM 41.7095 -75.8190 167° South  Level FlightAware Approximate
06:01PM 41.6471 -75.7989 162° South  Level Estimated
06:02PM 41.5852 -75.7764 165° South  Level FlightAware Approximate
06:03PM 41.5233 -75.7541 165° South  Level FlightAware Approximate
06:04PM 41.4614 -75.7317 165° South  Level FlightAware Approximate
06:05PM 41.3995 -75.7094 165° South  Level FlightAware Approximate
06:06PM 41.3371 -75.6898 163° South  Level Estimated
06:07PM 41.2755 -75.6658 164° South  Level FlightAware Approximate
06:08PM 41.2140 -75.6419 164° South  Level FlightAware Approximate
06:09PM 41.1524 -75.6180 164° South  Level FlightAware Approximate
06:10PM 41.0899 -75.5992 190° South  Level Estimated
06:11PM 41.0262 -75.5884 173° South  Level FlightAware Approximate
06:12PM 40.9803 -75.5806 173° South  Level FlightAware Approximate
06:13PM 40.9344 -75.5729 173° South  Level FlightAware Approximate
06:14PM 40.8815 -75.5561 187° South  Level Estimated
06:15PM 40.8272 -75.5516 176° South  Level FlightAware Approximate
06:16PM 40.7745 -75.5342 190° South  Level Estimated
06:16PM 40.6333 -75.5833 143° Southeast 248 285 5,200  Level Philadelphia TRACON
06:17PM 40.7201 -75.5359 181° South  Level FlightAware Approximate
06:17PM 40.5833 -75.5833 180° South 240 276 5,100  Level Philadelphia TRACON
06:18PM 40.6657 -75.5375 181° South  Level FlightAware Approximate
06:18PM 40.5333 -75.5833 180° South 234 269 5,100  Level Philadelphia TRACON
06:19PM 40.6135 -75.5178 180° South  Level Estimated
06:19PM 40.4667 -75.5667 169° South 235 270 5,100  Level Philadelphia TRACON
06:20PM 40.5612 -75.4980 143° Southeast  Level Estimated
06:20PM 40.4167 -75.5333 153° Southeast 237 273 5,100  Level Philadelphia TRACON
06:21PM 40.5089 -75.4783 143° Southeast  Level Estimated
06:21PM 40.3500 -75.4833 150° Southeast 236 272 5,100  Level Philadelphia TRACON
06:22PM 40.4567 -75.4586 143° Southeast  Level Estimated
06:22PM 40.3000 -75.4667 166° South 242 278 4,400  Level Philadelphia TRACON
06:23PM 40.2333 -75.4167 150° Southeast 247 284 3,500 -660 Descending Philadelphia TRACON
06:24PM 40.1667 -75.3833 159° South 234 269 3,100 -240 Descending Philadelphia TRACON
06:25PM 40.1167 -75.3500 153° Southeast 213 245 3,100 -60 Level Philadelphia TRACON
06:26PM 40.0667 -75.3333 166° South 185 213 3,000 -120 Descending Philadelphia TRACON
06:27PM 40.0167 -75.3000 153° Southeast 184 212 2,900 -600 Descending Philadelphia TRACON
06:28PM 39.9833 -75.2833 159° South 184 212 1,900 -960 Descending Philadelphia TRACON
06:29PM 39.9333 -75.2667 166° South 128 147 1,100 -720 Descending Philadelphia TRACON
06:30PM 39.9167 -75.2500 143° Southeast 98 113 500 -600 Descending Philadelphia TRACON
06:32PM 39.8667 -75.2333 150° Southeast  Level FlightAware Approximate